Time;durP1;ratioP1;P1;durP2;ratioP2;P2;SDS_P1;SDS_P2;PMS_P1;PMS_P2;Temp;Humidity;BMP_temperature;BMP_pressure;BME280_temperature;BME280_humidity;BME280_pressure;Samples;Min_cycle;Max_cycle;Signal;HPM_P1;HPM_P2
2022/12/20 00:02:14;;;;;;;4.75;2.83;;;;;;;;;;5070743;28;20028;-43
2022/12/20 00:04:40;;;;;;;4.55;3.10;;;;;;;;;;5070653;28;20803;-44
2022/12/20 00:07:07;;;;;;;5.57;3.25;;;;;;;;;;5070624;28;20024;-44
2022/12/20 00:09:33;;;;;;;7.30;3.40;;;;;;;;;;5071552;28;20039;-46
2022/12/20 00:11:59;;;;;;;4.68;2.70;;;;;;;;;;5071180;28;20432;-43
2022/12/20 00:14:25;;;;;;;5.05;2.92;;;;;;;;;;5072404;28;20025;-43
2022/12/20 00:16:51;;;;;;;3.70;2.70;;;;;;;;;;5065365;28;20025;-43
2022/12/20 00:19:17;;;;;;;3.75;2.63;;;;;;;;;;5070726;28;20012;-43
2022/12/20 00:21:43;;;;;;;4.13;2.78;;;;;;;;;;5071023;28;20036;-43
2022/12/20 00:24:09;;;;;;;4.85;2.80;;;;;;;;;;5059905;28;20099;-44
2022/12/20 00:26:36;;;;;;;5.07;3.42;;;;;;;;;;5069828;28;20056;-44
2022/12/20 00:29:04;;;;;;;4.20;2.83;;;;;;;;;;5071094;28;20485;-43
2022/12/20 00:31:30;;;;;;;4.93;3.10;;;;;;;;;;5070989;28;20021;-46
2022/12/20 00:33:57;;;;;;;6.28;3.47;;;;;;;;;;5069792;28;20033;-43
2022/12/20 00:36:24;;;;;;;5.88;3.60;;;;;;;;;;5068889;28;20038;-43
2022/12/20 00:38:51;;;;;;;4.90;2.63;;;;;;;;;;5069742;28;20024;-43
2022/12/20 00:41:19;;;;;;;4.60;3.25;;;;;;;;;;5058112;28;20020;-45
2022/12/20 00:43:45;;;;;;;4.88;3.00;;;;;;;;;;5069286;28;20362;-44
2022/12/20 00:46:12;;;;;;;6.65;3.25;;;;;;;;;;5070439;28;20035;-43
2022/12/20 00:48:38;;;;;;;4.70;3.30;;;;;;;;;;5069359;28;20381;-43
2022/12/20 00:51:05;;;;;;;4.65;3.28;;;;;;;;;;5069997;28;20008;-44
2022/12/20 00:53:32;;;;;;;3.60;2.65;;;;;;;;;;5069851;28;20024;-46
2022/12/20 00:55:58;;;;;;;4.50;2.92;;;;;;;;;;5077007;28;20039;-46
2022/12/20 00:58:24;;;;;;;4.72;3.03;;;;;;;;;;5061748;28;20103;-43
2022/12/20 01:00:50;;;;;;;4.70;3.10;;;;;;;;;;5071325;28;20032;-43
2022/12/20 01:03:16;;;;;;;4.93;3.00;;;;;;;;;;5070808;28;20037;-44
2022/12/20 01:05:52;;;;;;;3.40;2.80;;;;;;;;;;5070960;28;20021;-43
2022/12/20 01:08:18;;;;;;;4.53;2.88;;;;;;;;;;5070736;28;20036;-43
2022/12/20 01:10:44;;;;;;;4.38;3.20;;;;;;;;;;5067482;28;20042;-43
2022/12/20 01:13:10;;;;;;;5.25;3.58;;;;;;;;;;5047280;28;20036;-44
2022/12/20 01:15:36;;;;;;;4.30;3.10;;;;;;;;;;5058678;28;20024;-44
2022/12/20 01:18:02;;;;;;;4.55;3.00;;;;;;;;;;5063195;28;20118;-43
2022/12/20 01:20:28;;;;;;;3.80;2.45;;;;;;;;;;5050206;28;20028;-43
2022/12/20 01:22:54;;;;;;;4.43;3.30;;;;;;;;;;5070084;28;20029;-43
2022/12/20 01:25:19;;;;;;;2.97;2.50;;;;;;;;;;5070949;28;20382;-43
2022/12/20 01:27:45;;;;;;;3.63;2.85;;;;;;;;;;5051570;28;20036;-44
2022/12/20 01:30:11;;;;;;;4.50;2.90;;;;;;;;;;5070322;28;20024;-44
2022/12/20 01:32:37;;;;;;;4.85;3.10;;;;;;;;;;5066784;28;20416;-43
2022/12/20 01:35:04;;;;;;;4.57;2.97;;;;;;;;;;5071121;28;20023;-43
2022/12/20 01:37:31;;;;;;;4.78;3.25;;;;;;;;;;5070535;28;20417;-47
2022/12/20 01:39:57;;;;;;;3.28;2.58;;;;;;;;;;5070230;28;20032;-43
2022/12/20 01:42:22;;;;;;;4.30;3.03;;;;;;;;;;5070218;28;20029;-43
2022/12/20 01:44:52;;;;;;;4.38;3.05;;;;;;;;;;5069532;28;20025;-43
2022/12/20 01:47:18;;;;;;;5.10;3.35;;;;;;;;;;5069759;28;20351;-43
2022/12/20 01:49:46;;;;;;;3.63;2.90;;;;;;;;;;5070395;28;20123;-43
2022/12/20 01:52:19;;;;;;;5.97;3.67;;;;;;;;;;5070568;28;20020;-43
2022/12/20 01:55:12;;;;;;;4.80;3.28;;;;;;;;;;5069765;28;20048;-44
2022/12/20 01:57:47;;;;;;;3.80;2.97;;;;;;;;;;5061322;28;20036;-43
2022/12/20 02:00:15;;;;;;;4.28;2.85;;;;;;;;;;5070164;28;20136;-43
2022/12/20 02:02:42;;;;;;;4.65;2.90;;;;;;;;;;5069583;28;20033;-43
2022/12/20 02:05:08;;;;;;;4.18;3.10;;;;;;;;;;5070929;28;20047;-43
2022/12/20 02:07:35;;;;;;;4.13;3.08;;;;;;;;;;5069315;28;20028;-46
2022/12/20 02:10:02;;;;;;;5.22;3.28;;;;;;;;;;5070341;28;20388;-43
2022/12/20 02:12:38;;;;;;;4.65;3.08;;;;;;;;;;5070274;28;20461;-43
2022/12/20 02:15:04;;;;;;;5.10;3.13;;;;;;;;;;5070214;28;20577;-44
2022/12/20 02:17:45;;;;;;;4.43;3.42;;;;;;;;;;5063925;28;20108;-46
2022/12/20 02:20:17;;;;;;;5.20;3.63;;;;;;;;;;5053034;28;20016;-43
2022/12/20 02:22:52;;;;;;;3.85;2.67;;;;;;;;;;5069425;28;20490;-44
2022/12/20 02:25:35;;;;;;;4.03;3.08;;;;;;;;;;5070228;28;20625;-43
2022/12/20 02:28:36;;;;;;;4.55;2.80;;;;;;;;;;5069986;28;20040;-43
2022/12/20 02:31:04;;;;;;;5.60;2.97;;;;;;;;;;5012247;28;20036;-43
2022/12/20 02:33:30;;;;;;;3.88;3.20;;;;;;;;;;5057340;28;20527;-46
2022/12/20 02:35:56;;;;;;;4.15;3.00;;;;;;;;;;5070407;28;20025;-43
2022/12/20 02:38:30;;;;;;;4.45;2.88;;;;;;;;;;5069942;28;20029;-43
2022/12/20 02:40:58;;;;;;;4.65;2.60;;;;;;;;;;5070972;28;20037;-43
2022/12/20 02:46:09;;;;;;;4.35;3.15;;;;;;;;;;5061997;28;20426;-44
2022/12/20 02:48:36;;;;;;;3.80;2.90;;;;;;;;;;5073002;28;20067;-43
2022/12/20 02:51:03;;;;;;;6.13;3.67;;;;;;;;;;5073445;28;20507;-43
2022/12/20 02:53:29;;;;;;;4.50;2.97;;;;;;;;;;5073791;28;20024;-43
2022/12/20 02:56:01;;;;;;;4.45;3.03;;;;;;;;;;5072741;28;20052;-43
2022/12/20 02:58:34;;;;;;;3.97;3.22;;;;;;;;;;5066197;28;20025;-43
2022/12/20 03:01:03;;;;;;;3.85;2.90;;;;;;;;;;5069819;28;20378;-43
2022/12/20 03:03:29;;;;;;;4.10;2.97;;;;;;;;;;5061094;28;20020;-45
2022/12/20 03:05:56;;;;;;;3.78;2.83;;;;;;;;;;5069740;28;20657;-43
2022/12/20 03:08:23;;;;;;;3.75;2.65;;;;;;;;;;5067199;28;20017;-43
2022/12/20 03:10:49;;;;;;;5.50;3.20;;;;;;;;;;5072765;28;20028;-43
2022/12/20 03:13:15;;;;;;;4.57;2.70;;;;;;;;;;5073102;28;20118;-43
2022/12/20 03:15:41;;;;;;;5.13;3.30;;;;;;;;;;5072105;28;20027;-43
2022/12/20 03:18:07;;;;;;;4.68;3.15;;;;;;;;;;5070858;28;20036;-43
2022/12/20 03:20:33;;;;;;;3.25;2.42;;;;;;;;;;5068076;28;20025;-45
2022/12/20 03:22:59;;;;;;;3.70;2.85;;;;;;;;;;5073394;28;20400;-43
2022/12/20 03:25:25;;;;;;;4.00;2.90;;;;;;;;;;5072684;28;20032;-43
2022/12/20 03:27:51;;;;;;;5.45;3.20;;;;;;;;;;5071613;28;20024;-43
2022/12/20 03:30:18;;;;;;;4.60;3.60;;;;;;;;;;5073097;28;20027;-43
2022/12/20 03:32:44;;;;;;;4.13;3.25;;;;;;;;;;5071661;28;20078;-43
2022/12/20 03:35:10;;;;;;;3.97;2.50;;;;;;;;;;5055151;28;20048;-43
2022/12/20 03:37:36;;;;;;;4.18;2.92;;;;;;;;;;5072015;28;20032;-44
2022/12/20 03:40:02;;;;;;;4.00;2.97;;;;;;;;;;5072353;28;20377;-43
2022/12/20 03:42:28;;;;;;;4.43;2.92;;;;;;;;;;5072116;28;20036;-44
2022/12/20 03:44:54;;;;;;;4.55;2.72;;;;;;;;;;5071986;28;20054;-43
2022/12/20 03:47:20;;;;;;;4.00;2.75;;;;;;;;;;5072422;28;20031;-43
2022/12/20 03:49:46;;;;;;;3.30;2.45;;;;;;;;;;5071933;28;20103;-43
2022/12/20 03:52:12;;;;;;;5.03;3.20;;;;;;;;;;5071774;28;20024;-43
2022/12/20 03:54:38;;;;;;;3.35;2.53;;;;;;;;;;5070982;28;20036;-43
2022/12/20 03:57:05;;;;;;;3.67;2.75;;;;;;;;;;5072131;28;20074;-43
2022/12/20 03:59:31;;;;;;;4.07;2.95;;;;;;;;;;5071323;28;20048;-46
2022/12/20 04:01:57;;;;;;;4.30;3.00;;;;;;;;;;5071549;28;20064;-43
2022/12/20 04:04:23;;;;;;;3.30;2.60;;;;;;;;;;5071610;28;20439;-44
2022/12/20 04:06:49;;;;;;;4.32;2.90;;;;;;;;;;5071401;28;20111;-43
2022/12/20 04:09:15;;;;;;;4.63;3.58;;;;;;;;;;5072722;28;20025;-43
2022/12/20 04:11:41;;;;;;;5.05;2.70;;;;;;;;;;5071273;28;20074;-43
2022/12/20 04:14:07;;;;;;;4.97;3.30;;;;;;;;;;5072293;28;20070;-43
2022/12/20 04:16:36;;;;;;;3.63;2.85;;;;;;;;;;5068435;28;20119;-46
2022/12/20 04:19:05;;;;;;;4.07;3.00;;;;;;;;;;5061916;28;23575;-45
2022/12/20 04:21:34;;;;;;;5.05;3.33;;;;;;;;;;5069819;28;20377;-46
2022/12/20 04:24:01;;;;;;;4.07;2.95;;;;;;;;;;5072686;28;20021;-44
2022/12/20 04:26:27;;;;;;;4.05;2.75;;;;;;;;;;5072146;28;20438;-43
2022/12/20 04:28:53;;;;;;;4.20;3.10;;;;;;;;;;5070995;28;20028;-44
2022/12/20 04:31:20;;;;;;;5.35;2.90;;;;;;;;;;5072127;28;20016;-43
2022/12/20 04:33:47;;;;;;;3.97;2.83;;;;;;;;;;5066974;28;20086;-43
2022/12/20 04:36:16;;;;;;;3.60;3.00;;;;;;;;;;5063193;28;20386;-43
2022/12/20 04:38:42;;;;;;;3.67;2.83;;;;;;;;;;5070267;28;20056;-43
2022/12/20 04:41:08;;;;;;;3.78;3.03;;;;;;;;;;5072223;28;20075;-43
2022/12/20 04:43:34;;;;;;;4.60;2.80;;;;;;;;;;5070573;28;20032;-46
2022/12/20 04:46:00;;;;;;;4.32;3.35;;;;;;;;;;5071795;28;20048;-43
2022/12/20 04:48:27;;;;;;;4.43;3.10;;;;;;;;;;5071071;28;20032;-43
2022/12/20 04:50:54;;;;;;;3.58;2.60;;;;;;;;;;5070119;28;20032;-44
2022/12/20 04:56:05;;;;;;;3.67;2.65;;;;;;;;;;5066683;28;20102;-43
2022/12/20 04:58:31;;;;;;;4.40;3.10;;;;;;;;;;5064330;28;20025;-46
2022/12/20 05:00:57;;;;;;;4.22;2.47;;;;;;;;;;5069659;28;20035;-43
2022/12/20 05:03:24;;;;;;;4.10;3.42;;;;;;;;;;5070993;28;20032;-43
2022/12/20 05:05:50;;;;;;;4.07;2.67;;;;;;;;;;5068861;28;20020;-43
2022/12/20 05:08:17;;;;;;;4.00;3.13;;;;;;;;;;5059880;28;20051;-44
2022/12/20 05:10:43;;;;;;;3.85;2.40;;;;;;;;;;5065084;28;20021;-43
2022/12/20 05:13:09;;;;;;;5.25;2.90;;;;;;;;;;5071221;28;20017;-43
2022/12/20 05:15:35;;;;;;;4.18;2.53;;;;;;;;;;5070243;28;20024;-44
2022/12/20 05:18:01;;;;;;;3.97;3.25;;;;;;;;;;5067343;28;20528;-44
2022/12/20 05:20:28;;;;;;;4.63;2.78;;;;;;;;;;5071264;28;20028;-44
2022/12/20 05:28:28;;;;;;;3.67;2.80;;;;;;;;;;5070431;28;20097;-43
2022/12/20 05:30:54;;;;;;;3.70;2.75;;;;;;;;;;5069811;28;20021;-43
2022/12/20 05:33:20;;;;;;;3.70;2.95;;;;;;;;;;5070619;28;20047;-43
2022/12/20 05:35:46;;;;;;;5.50;2.78;;;;;;;;;;5067325;28;20147;-43
2022/12/20 05:38:12;;;;;;;3.65;2.60;;;;;;;;;;5070263;28;20028;-44
2022/12/20 05:40:38;;;;;;;3.38;2.78;;;;;;;;;;5068554;28;20032;-46
2022/12/20 05:43:05;;;;;;;3.97;2.78;;;;;;;;;;5067869;28;20374;-43
2022/12/20 05:45:31;;;;;;;4.82;2.70;;;;;;;;;;5068193;28;20039;-47
2022/12/20 05:47:57;;;;;;;3.72;2.70;;;;;;;;;;5067409;28;20029;-43
2022/12/20 05:50:23;;;;;;;4.00;3.10;;;;;;;;;;5069720;28;20013;-43
2022/12/20 05:52:49;;;;;;;3.60;2.33;;;;;;;;;;5067966;28;20028;-44
2022/12/20 05:55:15;;;;;;;4.25;3.17;;;;;;;;;;5075826;28;20456;-43
2022/12/20 05:57:41;;;;;;;4.50;3.03;;;;;;;;;;5072395;28;20524;-43
2022/12/20 06:00:07;;;;;;;3.35;2.47;;;;;;;;;;5070796;28;20028;-43
2022/12/20 06:02:33;;;;;;;6.85;3.25;;;;;;;;;;5072992;28;20444;-46
2022/12/20 06:04:59;;;;;;;3.25;2.60;;;;;;;;;;5071230;28;20100;-43
2022/12/20 06:07:27;;;;;;;4.05;2.63;;;;;;;;;;5060038;28;20035;-45
2022/12/20 06:09:54;;;;;;;3.47;2.53;;;;;;;;;;5069724;28;20071;-44
2022/12/20 06:12:20;;;;;;;3.72;2.90;;;;;;;;;;5068198;28;20020;-43
2022/12/20 06:14:46;;;;;;;4.78;3.05;;;;;;;;;;5050973;28;20075;-43
2022/12/20 06:17:12;;;;;;;3.58;2.30;;;;;;;;;;5067200;28;20040;-43
2022/12/20 06:19:40;;;;;;;4.10;2.80;;;;;;;;;;5073950;28;20424;-43
2022/12/20 06:22:07;;;;;;;3.88;2.80;;;;;;;;;;5074718;28;20419;-43
2022/12/20 06:24:34;;;;;;;5.35;2.80;;;;;;;;;;5062650;28;20025;-46
2022/12/20 06:27:00;;;;;;;4.22;2.63;;;;;;;;;;5073394;28;20032;-44
2022/12/20 06:29:26;;;;;;;3.35;2.63;;;;;;;;;;5075219;28;20063;-43
2022/12/20 06:31:52;;;;;;;3.92;2.83;;;;;;;;;;5060652;28;20028;-43
2022/12/20 06:34:19;;;;;;;3.50;2.45;;;;;;;;;;5066617;28;20024;-43
2022/12/20 06:36:45;;;;;;;3.35;2.30;;;;;;;;;;5070532;28;20017;-43
2022/12/20 06:39:11;;;;;;;3.38;2.45;;;;;;;;;;5073236;28;20035;-43
2022/12/20 06:41:40;;;;;;;5.22;2.90;;;;;;;;;;5072638;28;20025;-44
2022/12/20 06:44:06;;;;;;;2.97;2.25;;;;;;;;;;5074375;28;20028;-43
2022/12/20 06:46:32;;;;;;;4.05;2.92;;;;;;;;;;5072795;28;20043;-45
2022/12/20 06:48:59;;;;;;;4.07;3.05;;;;;;;;;;5071791;28;20029;-43
2022/12/20 06:51:25;;;;;;;4.93;2.65;;;;;;;;;;5074070;28;20024;-43
2022/12/20 06:53:51;;;;;;;4.25;2.90;;;;;;;;;;5072718;28;20520;-44
2022/12/20 06:56:17;;;;;;;3.13;2.50;;;;;;;;;;5073426;28;20135;-43
2022/12/20 06:58:45;;;;;;;3.45;2.60;;;;;;;;;;5071193;28;20820;-43
2022/12/20 07:01:11;;;;;;;4.15;2.70;;;;;;;;;;5073951;28;20024;-43
2022/12/20 07:03:37;;;;;;;4.38;2.60;;;;;;;;;;5071975;28;20036;-43
2022/12/20 07:06:03;;;;;;;5.53;3.55;;;;;;;;;;5072894;28;20048;-43
2022/12/20 07:08:29;;;;;;;3.40;2.35;;;;;;;;;;5073209;28;20055;-43
2022/12/20 07:10:55;;;;;;;3.90;2.58;;;;;;;;;;5070931;28;20276;-44
2022/12/20 07:13:22;;;;;;;3.03;2.60;;;;;;;;;;5073170;28;20029;-43
2022/12/20 07:15:48;;;;;;;3.90;2.63;;;;;;;;;;5072675;28;20043;-43
2022/12/20 07:18:14;;;;;;;3.92;2.58;;;;;;;;;;5065710;28;20573;-43
2022/12/20 07:20:40;;;;;;;4.30;2.97;;;;;;;;;;5070890;28;20036;-45
2022/12/20 07:23:06;;;;;;;3.90;2.50;;;;;;;;;;5070963;28;20032;-43
2022/12/20 07:25:32;;;;;;;4.72;3.50;;;;;;;;;;5068402;28;20021;-46
2022/12/20 07:27:58;;;;;;;4.50;3.42;;;;;;;;;;5069561;28;20029;-44
2022/12/20 07:30:23;;;;;;;4.68;2.30;;;;;;;;;;5072804;28;20496;-43
2022/12/20 07:32:50;;;;;;;5.13;3.10;;;;;;;;;;5046493;28;20977;-46
2022/12/20 07:35:16;;;;;;;4.18;2.70;;;;;;;;;;5053473;28;20017;-44
2022/12/20 07:37:42;;;;;;;4.32;2.30;;;;;;;;;;5072797;28;20052;-43
2022/12/20 07:40:08;;;;;;;6.47;2.90;;;;;;;;;;5066765;28;20021;-43
2022/12/20 07:42:34;;;;;;;7.57;2.95;;;;;;;;;;5071408;28;20021;-46
2022/12/20 07:45:00;;;;;;;5.80;3.40;;;;;;;;;;5069558;28;20017;-42
2022/12/20 07:47:26;;;;;;;4.60;2.90;;;;;;;;;;5067307;28;20043;-43
2022/12/20 07:49:52;;;;;;;7.88;3.53;;;;;;;;;;5071970;28;20020;-43
2022/12/20 07:52:23;;;;;;;7.78;3.50;;;;;;;;;;5066146;28;20052;-43
2022/12/20 07:54:52;;;;;;;7.03;3.50;;;;;;;;;;5072951;28;20485;-45
2022/12/20 07:57:25;;;;;;;8.57;3.28;;;;;;;;;;5084017;28;20469;-45
2022/12/20 07:59:53;;;;;;;6.32;2.95;;;;;;;;;;5096802;28;20077;-45
2022/12/20 08:02:32;;;;;;;8.70;2.90;;;;;;;;;;5082528;28;20024;-44
2022/12/20 08:04:58;;;;;;;7.10;3.25;;;;;;;;;;5083185;28;20099;-45
2022/12/20 08:07:24;;;;;;;5.80;3.40;;;;;;;;;;5091496;28;20511;-46
2022/12/20 08:09:50;;;;;;;7.28;3.00;;;;;;;;;;5090170;28;20021;-44
2022/12/20 08:12:17;;;;;;;5.60;3.28;;;;;;;;;;5092394;28;20099;-44
2022/12/20 08:14:43;;;;;;;8.25;3.05;;;;;;;;;;5085944;28;20034;-44
2022/12/20 08:17:10;;;;;;;8.70;3.72;;;;;;;;;;5088216;28;20430;-46
2022/12/20 08:19:37;;;;;;;7.28;3.78;;;;;;;;;;5088719;28;20481;-45
2022/12/20 08:22:04;;;;;;;7.20;2.90;;;;;;;;;;5086832;28;20032;-44
2022/12/20 08:24:30;;;;;;;7.40;3.13;;;;;;;;;;5092874;28;20020;-46
2022/12/20 08:26:56;;;;;;;9.23;3.63;;;;;;;;;;5090809;28;20089;-45
2022/12/20 08:29:22;;;;;;;8.55;4.22;;;;;;;;;;5090518;28;20028;-44
2022/12/20 08:31:48;;;;;;;7.10;3.25;;;;;;;;;;5087962;28;20012;-45
2022/12/20 08:34:14;;;;;;;8.48;3.80;;;;;;;;;;5087733;28;20019;-44
2022/12/20 08:36:40;;;;;;;5.38;3.35;;;;;;;;;;5091138;28;20369;-45
2022/12/20 08:39:07;;;;;;;6.15;2.95;;;;;;;;;;5086512;28;20060;-45
2022/12/20 08:41:36;;;;;;;6.38;3.00;;;;;;;;;;5089991;28;20024;-47
2022/12/20 08:44:02;;;;;;;5.40;3.15;;;;;;;;;;5081840;28;20031;-45
2022/12/20 08:46:28;;;;;;;6.63;3.28;;;;;;;;;;5107940;28;20477;-45
2022/12/20 08:48:54;;;;;;;8.48;3.30;;;;;;;;;;5089153;28;20108;-47
2022/12/20 08:51:20;;;;;;;8.40;2.95;;;;;;;;;;5091914;28;20024;-45
2022/12/20 08:53:46;;;;;;;7.38;3.28;;;;;;;;;;5090625;28;20113;-45
2022/12/20 08:56:20;;;;;;;5.15;3.33;;;;;;;;;;5080241;28;20354;-44
2022/12/20 08:58:47;;;;;;;5.10;3.03;;;;;;;;;;5086189;28;20013;-44
2022/12/20 09:01:17;;;;;;;9.85;3.65;;;;;;;;;;5089854;28;20373;-45
2022/12/20 09:03:44;;;;;;;5.22;2.60;;;;;;;;;;5090180;28;20024;-44
2022/12/20 09:06:11;;;;;;;4.70;3.10;;;;;;;;;;5087629;28;20032;-45
2022/12/20 09:08:38;;;;;;;5.25;2.90;;;;;;;;;;5090196;28;20044;-45
2022/12/20 09:11:12;;;;;;;6.80;3.20;;;;;;;;;;5091890;28;20410;-45
2022/12/20 09:13:40;;;;;;;8.20;2.90;;;;;;;;;;5090813;28;20020;-48
2022/12/20 09:16:07;;;;;;;9.30;3.83;;;;;;;;;;5089019;28;20020;-45
2022/12/20 09:18:33;;;;;;;5.10;2.85;;;;;;;;;;5075852;28;20497;-48
2022/12/20 09:21:00;;;;;;;5.05;3.25;;;;;;;;;;5091183;28;20023;-45
2022/12/20 09:23:26;;;;;;;6.30;4.18;;;;;;;;;;5092394;28;20362;-45
2022/12/20 09:25:52;;;;;;;6.07;3.08;;;;;;;;;;5089206;28;20197;-44
2022/12/20 09:28:19;;;;;;;5.65;3.50;;;;;;;;;;5091052;28;20038;-44
2022/12/20 09:30:45;;;;;;;6.03;3.17;;;;;;;;;;5090602;28;20023;-45
2022/12/20 09:33:11;;;;;;;4.22;2.72;;;;;;;;;;5090611;28;20059;-45
2022/12/20 09:35:43;;;;;;;6.18;3.45;;;;;;;;;;5071899;28;20028;-45
2022/12/20 09:38:09;;;;;;;6.30;3.60;;;;;;;;;;5088937;28;20469;-45
2022/12/20 09:40:37;;;;;;;5.55;2.97;;;;;;;;;;5098528;28;20028;-48
2022/12/20 09:43:03;;;;;;;6.63;3.13;;;;;;;;;;5092076;28;20028;-45
2022/12/20 09:45:32;;;;;;;4.38;3.38;;;;;;;;;;5091016;28;20032;-45
2022/12/20 09:47:58;;;;;;;9.43;3.30;;;;;;;;;;5090089;28;20481;-45
2022/12/20 09:50:34;;;;;;;4.80;3.15;;;;;;;;;;5089664;28;20069;-45
2022/12/20 09:53:26;;;;;;;6.78;2.92;;;;;;;;;;5094709;28;20028;-45
2022/12/20 09:55:52;;;;;;;;;;;;;;;;;;5092450;28;20047;-45
2022/12/20 09:58:23;;;;;;;4.55;2.75;;;;;;;;;;5094704;28;19904;-45
2022/12/20 10:00:49;;;;;;;6.47;3.20;;;;;;;;;;5094420;28;20073;-45
2022/12/20 10:03:23;;;;;;;5.82;3.28;;;;;;;;;;5094873;28;20099;-46
2022/12/20 10:06:15;;;;;;;4.35;2.88;;;;;;;;;;5093608;28;20085;-45
2022/12/20 10:08:45;;;;;;;6.95;2.75;;;;;;;;;;5063006;28;20040;-46
2022/12/20 10:11:14;;;;;;;4.53;2.90;;;;;;;;;;5095020;28;20020;-45
2022/12/20 10:13:40;;;;;;;5.50;3.38;;;;;;;;;;5085184;28;20078;-45
2022/12/20 10:16:19;;;;;;;4.65;3.08;;;;;;;;;;5094743;28;20058;-45
2022/12/20 10:18:57;;;;;;;5.28;3.22;;;;;;;;;;5092277;28;20386;-45
2022/12/20 10:21:34;;;;;;;5.38;3.28;;;;;;;;;;5095608;28;20528;-47
2022/12/20 10:24:01;;;;;;;4.65;2.88;;;;;;;;;;5087578;28;20092;-45
2022/12/20 10:26:28;;;;;;;4.82;3.60;;;;;;;;;;5089753;28;20042;-44
2022/12/20 10:28:54;;;;;;;6.97;3.55;;;;;;;;;;5093557;28;20038;-43
2022/12/20 10:31:20;;;;;;;5.07;2.72;;;;;;;;;;5094478;28;20026;-45
2022/12/20 10:33:46;;;;;;;7.10;3.65;;;;;;;;;;5092427;28;20024;-44
2022/12/20 10:36:25;;;;;;;4.78;2.97;;;;;;;;;;5094489;28;20024;-44
2022/12/20 10:38:52;;;;;;;9.05;3.67;;;;;;;;;;5093157;28;20910;-44
2022/12/20 10:41:19;;;;;;;6.18;3.08;;;;;;;;;;5094059;28;20024;-44
2022/12/20 10:43:48;;;;;;;6.72;3.72;;;;;;;;;;5091285;28;20028;-45
2022/12/20 10:46:17;;;;;;;6.18;3.83;;;;;;;;;;5111152;28;20103;-44
2022/12/20 10:48:45;;;;;;;4.60;3.05;;;;;;;;;;5100447;28;20028;-44
2022/12/20 10:51:13;;;;;;;5.88;3.42;;;;;;;;;;5099080;28;20385;-44
2022/12/20 10:53:51;;;;;;;5.63;3.08;;;;;;;;;;5092438;28;20028;-45
2022/12/20 10:56:28;;;;;;;5.82;3.25;;;;;;;;;;5093523;28;20500;-44
2022/12/20 10:58:55;;;;;;;3.95;2.60;;;;;;;;;;5090937;28;20067;-44
2022/12/20 11:01:22;;;;;;;5.75;3.40;;;;;;;;;;5093549;28;20027;-45
2022/12/20 11:03:50;;;;;;;8.00;3.63;;;;;;;;;;5097520;28;20516;-45
2022/12/20 11:06:17;;;;;;;8.55;3.28;;;;;;;;;;5092020;28;20024;-45
2022/12/20 11:08:43;;;;;;;9.23;4.45;;;;;;;;;;5091124;28;20031;-45
2022/12/20 11:11:15;;;;;;;5.38;2.80;;;;;;;;;;5092218;28;20449;-44
2022/12/20 11:13:42;;;;;;;9.30;3.72;;;;;;;;;;5086479;28;20035;-45
2022/12/20 11:16:40;;;;;;;5.90;3.75;;;;;;;;;;5089059;28;20035;-45
2022/12/20 11:19:12;;;;;;;55.55;26.40;;;;;;;;;;5059208;28;20032;-45
2022/12/20 11:22:04;;;;;;;49.85;23.50;;;;;;;;;;5091992;28;20086;-45
2022/12/20 11:24:30;;;;;;;;;;;;;;;;;;5074136;28;20107;-45
2022/12/20 11:26:59;;;;;;;45.65;20.25;;;;;;;;;;5089264;28;20014;-44
2022/12/20 11:29:25;;;;;;;44.88;21.33;;;;;;;;;;5093234;28;20117;-44
2022/12/20 11:32:04;;;;;;;40.65;19.00;;;;;;;;;;5084025;28;20644;-44
2022/12/20 11:34:48;;;;;;;40.35;18.35;;;;;;;;;;5092792;28;20032;-44
2022/12/20 11:37:17;;;;;;;37.53;16.67;;;;;;;;;;5091220;28;20126;-44
2022/12/20 11:39:50;;;;;;;37.28;16.33;;;;;;;;;;5097533;28;20024;-44
2022/12/20 11:42:33;;;;;;;33.42;16.02;;;;;;;;;;5092604;28;20024;-44
2022/12/20 11:45:08;;;;;;;31.75;15.23;;;;;;;;;;5092876;28;20024;-47
2022/12/20 11:47:48;;;;;;;32.85;16.52;;;;;;;;;;5078891;28;20373;-48
2022/12/20 11:50:25;;;;;;;27.20;13.80;;;;;;;;;;5078149;28;20482;-44
2022/12/20 11:52:54;;;;;;;31.75;14.32;;;;;;;;;;5092075;28;20852;-44
2022/12/20 11:55:37;;;;;;;28.55;13.40;;;;;;;;;;5091224;28;20525;-44
2022/12/20 11:58:12;;;;;;;27.40;13.00;;;;;;;;;;5084117;28;20034;-44
2022/12/20 12:00:39;;;;;;;24.10;11.57;;;;;;;;;;5079062;28;20091;-45
2022/12/20 12:03:15;;;;;;;24.38;11.68;;;;;;;;;;5076195;28;20508;-45
2022/12/20 12:05:46;;;;;;;22.80;10.48;;;;;;;;;;5089955;28;20058;-45
2022/12/20 12:08:16;;;;;;;15.55;8.60;;;;;;;;;;5092057;28;20020;-43
2022/12/20 12:10:45;;;;;;;8.73;5.10;;;;;;;;;;5091899;28;20073;-44
2022/12/20 12:13:16;;;;;;;8.77;4.82;;;;;;;;;;5084787;28;20043;-44
2022/12/20 12:15:46;;;;;;;13.00;6.10;;;;;;;;;;5087197;28;20358;-44
2022/12/20 12:18:24;;;;;;;10.18;5.43;;;;;;;;;;5080991;28;20028;-44
2022/12/20 12:20:54;;;;;;;11.65;6.00;;;;;;;;;;5099250;28;20511;-45
2022/12/20 12:23:34;;;;;;;8.82;5.15;;;;;;;;;;5088778;28;20077;-46
2022/12/20 12:26:02;;;;;;;10.07;5.43;;;;;;;;;;5085300;28;20106;-45
2022/12/20 12:28:28;;;;;;;11.68;5.47;;;;;;;;;;5090426;28;20040;-45
2022/12/20 12:30:56;;;;;;;9.13;4.78;;;;;;;;;;5082897;28;20020;-45
2022/12/20 12:33:26;;;;;;;10.57;4.70;;;;;;;;;;5088513;28;20028;-46
2022/12/20 12:36:03;;;;;;;9.88;4.85;;;;;;;;;;5090088;28;20016;-45
2022/12/20 12:38:40;;;;;;;9.10;5.57;;;;;;;;;;5091589;28;20381;-45
2022/12/20 12:41:12;;;;;;;11.25;5.57;;;;;;;;;;5090650;28;20465;-46
2022/12/20 12:43:38;;;;;;;;;;;;;;;;;;5090700;28;20030;-45
2022/12/20 12:46:09;;;;;;;8.52;4.25;;;;;;;;;;5089662;28;19999;-45
2022/12/20 12:48:39;;;;;;;9.02;4.93;;;;;;;;;;5090665;28;20036;-48
2022/12/20 12:51:05;;;;;;;6.75;3.90;;;;;;;;;;5091199;28;20560;-45
2022/12/20 12:53:31;;;;;;;11.88;4.63;;;;;;;;;;5091034;28;20024;-48
2022/12/20 12:55:58;;;;;;;9.02;4.70;;;;;;;;;;5086419;28;20110;-45
2022/12/20 12:58:24;;;;;;;8.45;4.68;;;;;;;;;;5086109;28;20020;-45
2022/12/20 13:01:17;;;;;;;9.23;5.05;;;;;;;;;;5092190;28;20024;-45
2022/12/20 13:03:45;;;;;;;9.98;4.55;;;;;;;;;;5088043;28;20032;-45
2022/12/20 13:06:24;;;;;;;7.78;4.75;;;;;;;;;;5091591;28;20043;-45
2022/12/20 13:08:50;;;;;;;7.65;3.60;;;;;;;;;;5090317;28;20032;-45
2022/12/20 13:11:28;;;;;;;10.07;4.70;;;;;;;;;;5089904;28;20028;-45
2022/12/20 13:14:13;;;;;;;9.13;4.45;;;;;;;;;;5082679;28;20028;-45
2022/12/20 13:16:40;;;;;;;9.32;4.20;;;;;;;;;;5086694;28;20044;-45
2022/12/20 13:19:13;;;;;;;7.00;3.97;;;;;;;;;;5093354;28;20020;-45
2022/12/20 13:21:42;;;;;;;8.50;4.63;;;;;;;;;;5087868;28;20068;-46
2022/12/20 13:24:34;;;;;;;7.47;3.75;;;;;;;;;;5090643;28;20027;-45
2022/12/20 13:27:01;;;;;;;8.13;3.92;;;;;;;;;;5089995;28;20088;-46
2022/12/20 13:29:32;;;;;;;7.93;4.25;;;;;;;;;;5091065;28;20103;-45
2022/12/20 13:31:58;;;;;;;7.05;4.20;;;;;;;;;;5080001;28;20070;-45
2022/12/20 13:34:50;;;;;;;10.13;4.07;;;;;;;;;;5090469;28;20105;-45
2022/12/20 13:37:16;;;;;;;;;;;;;;;;;;5087678;28;20126;-45
2022/12/20 13:39:47;;;;;;;8.27;4.28;;;;;;;;;;5086451;28;20393;-45
2022/12/20 13:42:25;;;;;;;6.00;3.67;;;;;;;;;;5090254;28;20458;-45
2022/12/20 13:44:53;;;;;;;7.97;3.83;;;;;;;;;;5094057;28;20032;-45
2022/12/20 13:47:26;;;;;;;7.43;3.85;;;;;;;;;;5085877;28;20082;-46
2022/12/20 13:49:52;;;;;;;10.50;4.72;;;;;;;;;;5098777;28;20023;-44
2022/12/20 13:52:28;;;;;;;9.35;3.92;;;;;;;;;;5076438;28;20016;-45
2022/12/20 13:54:56;;;;;;;8.45;4.03;;;;;;;;;;5099281;28;20226;-45
2022/12/20 13:57:27;;;;;;;7.63;3.95;;;;;;;;;;5089729;28;20028;-45
2022/12/20 13:59:54;;;;;;;10.70;5.07;;;;;;;;;;5090143;28;20097;-45
2022/12/20 14:02:26;;;;;;;9.52;4.85;;;;;;;;;;5103035;28;20012;-45
2022/12/20 14:04:57;;;;;;;8.52;4.20;;;;;;;;;;5087464;28;20033;-46
2022/12/20 14:07:25;;;;;;;7.07;3.65;;;;;;;;;;5090177;28;20462;-45
2022/12/20 14:10:00;;;;;;;6.63;4.32;;;;;;;;;;5085911;28;20087;-44
2022/12/20 14:12:28;;;;;;;7.07;4.20;;;;;;;;;;5087011;28;20009;-42
2022/12/20 14:14:54;;;;;;;8.85;4.05;;;;;;;;;;5086091;28;20333;-42
2022/12/20 14:17:31;;;;;;;6.88;4.03;;;;;;;;;;5097326;28;20072;-43
2022/12/20 14:20:06;;;;;;;7.30;3.83;;;;;;;;;;5099313;28;20056;-42
2022/12/20 14:22:35;;;;;;;5.70;3.42;;;;;;;;;;5087677;28;20024;-45
2022/12/20 14:25:04;;;;;;;7.82;4.35;;;;;;;;;;5090574;28;20035;-42
2022/12/20 14:27:32;;;;;;;6.70;3.08;;;;;;;;;;5089218;28;20044;-42
2022/12/20 14:29:59;;;;;;;5.63;3.67;;;;;;;;;;5090069;28;20020;-42
2022/12/20 14:32:25;;;;;;;9.00;3.60;;;;;;;;;;5083141;28;20967;-42
2022/12/20 14:34:52;;;;;;;6.70;4.05;;;;;;;;;;5091312;28;20573;-42
2022/12/20 14:37:36;;;;;;;6.45;3.60;;;;;;;;;;5098466;28;20055;-44
2022/12/20 14:40:14;;;;;;;6.32;3.42;;;;;;;;;;5082242;28;20028;-44
2022/12/20 14:42:40;;;;;;;5.72;3.60;;;;;;;;;;5096997;28;20042;-44
2022/12/20 14:45:09;;;;;;;7.70;4.07;;;;;;;;;;5078262;28;20040;-45
2022/12/20 14:47:36;;;;;;;6.93;3.53;;;;;;;;;;5084977;28;20430;-47
2022/12/20 14:50:04;;;;;;;5.75;3.70;;;;;;;;;;5092223;28;20488;-44
2022/12/20 14:52:33;;;;;;;5.75;3.17;;;;;;;;;;5093338;28;20047;-44
2022/12/20 14:55:01;;;;;;;6.53;3.63;;;;;;;;;;5094237;28;20063;-44
2022/12/20 14:57:38;;;;;;;5.93;3.58;;;;;;;;;;5091511;28;20032;-44
2022/12/20 15:00:22;;;;;;;7.90;4.20;;;;;;;;;;5081743;28;20059;-44
2022/12/20 15:03:00;;;;;;;6.68;3.13;;;;;;;;;;5092660;28;20533;-45
2022/12/20 15:05:35;;;;;;;7.63;4.05;;;;;;;;;;5094329;28;20032;-44